sensor_id;sensor_type;location;lat;lon;timestamp;P1;P2;P0
70197;PMS5003;57582;-34.876;138.628;2023-09-07T00:01:31;2.53;1.57;0.13
70197;PMS5003;57582;-34.876;138.628;2023-09-07T00:04:30;3.63;2.17;0.67
70197;PMS5003;57582;-34.876;138.628;2023-09-07T00:07:31;1.63;0.73;0.00
70197;PMS5003;57582;-34.876;138.628;2023-09-07T00:10:32;2.83;0.87;0.00
70197;PMS5003;57582;-34.876;138.628;2023-09-07T00:13:30;3.50;2.53;0.00
70197;PMS5003;57582;-34.876;138.628;2023-09-07T00:16:32;2.37;1.23;0.27
70197;PMS5003;57582;-34.876;138.628;2023-09-07T00:19:30;4.10;1.60;0.27
70197;PMS5003;57582;-34.876;138.628;2023-09-07T00:22:30;2.43;1.77;0.10
70197;PMS5003;57582;-34.876;138.628;2023-09-07T00:25:30;4.30;1.73;0.30
70197;PMS5003;57582;-34.876;138.628;2023-09-07T00:28:30;3.70;2.80;0.93
70197;PMS5003;57582;-34.876;138.628;2023-09-07T00:31:30;1.50;1.10;0.03
70197;PMS5003;57582;-34.876;138.628;2023-09-07T00:34:31;3.17;2.73;1.50
70197;PMS5003;57582;-34.876;138.628;2023-09-07T00:37:30;6.43;1.50;0.37
70197;PMS5003;57582;-34.876;138.628;2023-09-07T00:40:31;2.23;0.93;0.00
70197;PMS5003;57582;-34.876;138.628;2023-09-07T00:43:30;1.17;0.60;0.00
70197;PMS5003;57582;-34.876;138.628;2023-09-07T00:46:30;2.87;1.30;0.30
70197;PMS5003;57582;-34.876;138.628;2023-09-07T00:49:30;2.33;0.83;0.00
70197;PMS5003;57582;-34.876;138.628;2023-09-07T00:52:30;2.77;0.87;0.03
70197;PMS5003;57582;-34.876;138.628;2023-09-07T00:55:30;3.20;1.03;0.00
70197;PMS5003;57582;-34.876;138.628;2023-09-07T00:58:30;0.73;0.73;0.10
70197;PMS5003;57582;-34.876;138.628;2023-09-07T01:01:30;1.77;1.17;0.13
70197;PMS5003;57582;-34.876;138.628;2023-09-07T01:04:30;1.73;1.57;0.27
70197;PMS5003;57582;-34.876;138.628;2023-09-07T01:07:35;1.47;1.33;0.67
70197;PMS5003;57582;-34.876;138.628;2023-09-07T01:10:31;1.90;1.90;0.03
70197;PMS5003;57582;-34.876;138.628;2023-09-07T01:13:30;1.00;0.30;0.00
70197;PMS5003;57582;-34.876;138.628;2023-09-07T01:16:31;1.77;1.70;0.07
70197;PMS5003;57582;-34.876;138.628;2023-09-07T01:19:30;2.77;1.33;0.23
70197;PMS5003;57582;-34.876;138.628;2023-09-07T01:22:30;1.90;1.03;0.00
70197;PMS5003;57582;-34.876;138.628;2023-09-07T01:25:30;3.17;1.57;0.10
70197;PMS5003;57582;-34.876;138.628;2023-09-07T01:28:30;2.57;0.20;0.00
70197;PMS5003;57582;-34.876;138.628;2023-09-07T01:31:30;2.63;1.03;0.00
70197;PMS5003;57582;-34.876;138.628;2023-09-07T01:34:30;1.47;0.17;0.00
70197;PMS5003;57582;-34.876;138.628;2023-09-07T01:37:30;2.20;0.17;0.00
70197;PMS5003;57582;-34.876;138.628;2023-09-07T01:40:30;3.13;1.63;0.27
70197;PMS5003;57582;-34.876;138.628;2023-09-07T01:43:30;2.40;1.10;0.00
70197;PMS5003;57582;-34.876;138.628;2023-09-07T01:46:30;1.57;0.90;0.00
70197;PMS5003;57582;-34.876;138.628;2023-09-07T01:49:30;3.10;0.60;0.00
70197;PMS5003;57582;-34.876;138.628;2023-09-07T01:52:30;2.03;0.47;0.00
70197;PMS5003;57582;-34.876;138.628;2023-09-07T01:55:30;1.00;0.60;0.03
70197;PMS5003;57582;-34.876;138.628;2023-09-07T01:58:30;5.23;1.00;0.00
70197;PMS5003;57582;-34.876;138.628;2023-09-07T02:01:31;1.80;0.10;0.00
70197;PMS5003;57582;-34.876;138.628;2023-09-07T02:04:30;4.67;0.53;0.00
70197;PMS5003;57582;-34.876;138.628;2023-09-07T02:07:30;1.63;0.03;0.00
70197;PMS5003;57582;-34.876;138.628;2023-09-07T02:10:31;1.67;0.93;0.00
70197;PMS5003;57582;-34.876;138.628;2023-09-07T02:13:30;1.83;0.40;0.00
70197;PMS5003;57582;-34.876;138.628;2023-09-07T02:16:30;1.17;1.17;0.00
70197;PMS5003;57582;-34.876;138.628;2023-09-07T02:19:30;2.33;1.10;0.70
70197;PMS5003;57582;-34.876;138.628;2023-09-07T02:22:30;1.13;0.60;0.23
70197;PMS5003;57582;-34.876;138.628;2023-09-07T02:25:30;2.83;2.03;0.00
70197;PMS5003;57582;-34.876;138.628;2023-09-07T02:28:30;1.67;0.00;0.00
70197;PMS5003;57582;-34.876;138.628;2023-09-07T02:31:30;3.13;1.57;0.63
70197;PMS5003;57582;-34.876;138.628;2023-09-07T02:34:31;2.80;2.03;0.17
70197;PMS5003;57582;-34.876;138.628;2023-09-07T02:37:30;3.83;1.40;0.33
70197;PMS5003;57582;-34.876;138.628;2023-09-07T02:40:30;1.57;1.57;0.60
70197;PMS5003;57582;-34.876;138.628;2023-09-07T02:43:30;5.90;1.17;0.00
70197;PMS5003;57582;-34.876;138.628;2023-09-07T02:46:31;2.33;0.80;0.00
70197;PMS5003;57582;-34.876;138.628;2023-09-07T02:49:30;2.83;1.97;0.27
70197;PMS5003;57582;-34.876;138.628;2023-09-07T02:52:30;1.67;1.07;0.00
70197;PMS5003;57582;-34.876;138.628;2023-09-07T02:55:30;2.40;1.33;0.00
70197;PMS5003;57582;-34.876;138.628;2023-09-07T02:58:31;2.10;0.50;0.00
70197;PMS5003;57582;-34.876;138.628;2023-09-07T03:01:30;1.03;0.93;0.20
70197;PMS5003;57582;-34.876;138.628;2023-09-07T03:04:30;2.17;0.67;0.00
70197;PMS5003;57582;-34.876;138.628;2023-09-07T03:07:33;4.10;1.03;0.00
70197;PMS5003;57582;-34.876;138.628;2023-09-07T03:10:31;3.97;1.60;0.67
70197;PMS5003;57582;-34.876;138.628;2023-09-07T03:13:31;3.50;1.73;0.00
70197;PMS5003;57582;-34.876;138.628;2023-09-07T03:16:30;1.30;0.73;0.47
70197;PMS5003;57582;-34.876;138.628;2023-09-07T03:19:30;2.40;2.40;0.60
70197;PMS5003;57582;-34.876;138.628;2023-09-07T03:22:31;3.43;2.37;0.97
70197;PMS5003;57582;-34.876;138.628;2023-09-07T03:25:30;2.97;1.37;0.13
70197;PMS5003;57582;-34.876;138.628;2023-09-07T03:28:30;1.93;0.00;0.00
70197;PMS5003;57582;-34.876;138.628;2023-09-07T03:31:30;1.83;1.57;0.00
70197;PMS5003;57582;-34.876;138.628;2023-09-07T03:34:31;1.97;1.57;0.00
70197;PMS5003;57582;-34.876;138.628;2023-09-07T03:37:30;2.50;1.90;0.00
70197;PMS5003;57582;-34.876;138.628;2023-09-07T03:40:30;4.43;2.13;0.27
70197;PMS5003;57582;-34.876;138.628;2023-09-07T03:43:30;4.93;2.97;1.70
70197;PMS5003;57582;-34.876;138.628;2023-09-07T03:46:31;3.83;1.77;0.50
70197;PMS5003;57582;-34.876;138.628;2023-09-07T03:49:30;6.00;2.40;0.80
70197;PMS5003;57582;-34.876;138.628;2023-09-07T03:52:31;4.67;1.93;0.43
70197;PMS5003;57582;-34.876;138.628;2023-09-07T03:55:41;3.90;2.00;0.27
70197;PMS5003;57582;-34.876;138.628;2023-09-07T03:58:31;1.80;1.20;0.40
70197;PMS5003;57582;-34.876;138.628;2023-09-07T04:01:30;4.87;2.50;0.87
70197;PMS5003;57582;-34.876;138.628;2023-09-07T04:04:30;3.70;2.97;0.83
70197;PMS5003;57582;-34.876;138.628;2023-09-07T04:07:31;3.73;1.83;0.13
70197;PMS5003;57582;-34.876;138.628;2023-09-07T04:10:31;5.87;2.87;1.03
70197;PMS5003;57582;-34.876;138.628;2023-09-07T04:13:31;4.00;2.50;0.30
70197;PMS5003;57582;-34.876;138.628;2023-09-07T04:16:30;3.03;1.53;0.23
70197;PMS5003;57582;-34.876;138.628;2023-09-07T04:19:31;3.10;2.30;0.37
70197;PMS5003;57582;-34.876;138.628;2023-09-07T04:22:31;3.17;1.77;0.60
70197;PMS5003;57582;-34.876;138.628;2023-09-07T04:25:30;5.20;2.50;0.90
70197;PMS5003;57582;-34.876;138.628;2023-09-07T04:28:30;7.80;3.43;0.50
70197;PMS5003;57582;-34.876;138.628;2023-09-07T04:31:30;3.83;1.93;0.90
70197;PMS5003;57582;-34.876;138.628;2023-09-07T04:34:31;4.93;1.70;0.43
70197;PMS5003;57582;-34.876;138.628;2023-09-07T04:37:30;2.40;0.63;0.27
70197;PMS5003;57582;-34.876;138.628;2023-09-07T04:40:30;3.03;1.70;0.37
70197;PMS5003;57582;-34.876;138.628;2023-09-07T04:43:30;3.40;2.40;0.80
70197;PMS5003;57582;-34.876;138.628;2023-09-07T04:46:31;5.73;1.23;0.03
70197;PMS5003;57582;-34.876;138.628;2023-09-07T04:49:30;1.70;1.10;0.00
70197;PMS5003;57582;-34.876;138.628;2023-09-07T04:52:30;2.63;1.60;0.13
70197;PMS5003;57582;-34.876;138.628;2023-09-07T04:55:30;4.20;2.57;0.47
70197;PMS5003;57582;-34.876;138.628;2023-09-07T04:58:31;2.97;1.57;0.40
70197;PMS5003;57582;-34.876;138.628;2023-09-07T05:01:30;7.47;2.07;0.47
70197;PMS5003;57582;-34.876;138.628;2023-09-07T05:04:30;3.90;2.27;0.83
70197;PMS5003;57582;-34.876;138.628;2023-09-07T05:07:30;6.07;2.30;0.70
70197;PMS5003;57582;-34.876;138.628;2023-09-07T05:10:34;2.93;2.00;0.27
70197;PMS5003;57582;-34.876;138.628;2023-09-07T05:13:31;5.63;2.87;0.50
70197;PMS5003;57582;-34.876;138.628;2023-09-07T05:16:30;2.83;1.43;0.00
70197;PMS5003;57582;-34.876;138.628;2023-09-07T05:19:30;4.83;3.77;0.83
70197;PMS5003;57582;-34.876;138.628;2023-09-07T05:22:32;4.90;3.40;0.40
70197;PMS5003;57582;-34.876;138.628;2023-09-07T05:25:30;5.20;2.60;0.00
70197;PMS5003;57582;-34.876;138.628;2023-09-07T05:28:30;11.73;4.37;1.30
70197;PMS5003;57582;-34.876;138.628;2023-09-07T05:31:30;5.50;2.87;0.03
70197;PMS5003;57582;-34.876;138.628;2023-09-07T05:34:31;6.53;1.63;0.07
70197;PMS5003;57582;-34.876;138.628;2023-09-07T05:37:30;6.87;2.03;0.07
70197;PMS5003;57582;-34.876;138.628;2023-09-07T05:40:33;2.93;1.83;0.73
70197;PMS5003;57582;-34.876;138.628;2023-09-07T05:43:30;5.50;3.20;0.00
70197;PMS5003;57582;-34.876;138.628;2023-09-07T05:46:31;2.30;1.63;0.20
70197;PMS5003;57582;-34.876;138.628;2023-09-07T05:49:30;6.80;2.40;0.50
70197;PMS5003;57582;-34.876;138.628;2023-09-07T05:52:30;4.53;1.97;0.37
70197;PMS5003;57582;-34.876;138.628;2023-09-07T05:55:31;2.77;1.43;0.00
70197;PMS5003;57582;-34.876;138.628;2023-09-07T05:58:31;4.00;2.10;0.60
70197;PMS5003;57582;-34.876;138.628;2023-09-07T06:01:30;2.57;1.93;0.57
70197;PMS5003;57582;-34.876;138.628;2023-09-07T06:04:30;5.23;1.80;0.00
70197;PMS5003;57582;-34.876;138.628;2023-09-07T06:07:31;7.27;2.57;0.33
70197;PMS5003;57582;-34.876;138.628;2023-09-07T06:10:31;5.53;2.90;1.40
70197;PMS5003;57582;-34.876;138.628;2023-09-07T06:13:30;1.13;0.90;0.00
70197;PMS5003;57582;-34.876;138.628;2023-09-07T06:16:32;3.63;2.57;0.70
70197;PMS5003;57582;-34.876;138.628;2023-09-07T06:19:31;3.20;2.47;0.83
70197;PMS5003;57582;-34.876;138.628;2023-09-07T06:22:31;2.90;1.60;0.40
70197;PMS5003;57582;-34.876;138.628;2023-09-07T06:25:30;3.23;1.47;0.70
70197;PMS5003;57582;-34.876;138.628;2023-09-07T06:28:30;4.53;2.53;0.43
70197;PMS5003;57582;-34.876;138.628;2023-09-07T06:31:31;1.80;1.73;0.03
70197;PMS5003;57582;-34.876;138.628;2023-09-07T06:34:31;1.47;0.40;0.00
70197;PMS5003;57582;-34.876;138.628;2023-09-07T06:37:30;4.63;2.07;0.03
70197;PMS5003;57582;-34.876;138.628;2023-09-07T06:40:31;4.73;2.30;0.53
70197;PMS5003;57582;-34.876;138.628;2023-09-07T06:43:30;6.10;4.90;1.50
70197;PMS5003;57582;-34.876;138.628;2023-09-07T06:46:31;4.80;2.20;0.40
70197;PMS5003;57582;-34.876;138.628;2023-09-07T06:49:30;3.10;2.10;0.77
70197;PMS5003;57582;-34.876;138.628;2023-09-07T06:52:30;5.03;3.77;0.97
70197;PMS5003;57582;-34.876;138.628;2023-09-07T06:55:30;2.97;2.07;1.17
70197;PMS5003;57582;-34.876;138.628;2023-09-07T06:58:31;2.57;2.57;1.67
70197;PMS5003;57582;-34.876;138.628;2023-09-07T07:01:30;3.27;1.77;0.00
70197;PMS5003;57582;-34.876;138.628;2023-09-07T07:04:30;1.60;0.43;0.10
70197;PMS5003;57582;-34.876;138.628;2023-09-07T07:07:32;1.70;1.27;0.43
70197;PMS5003;57582;-34.876;138.628;2023-09-07T07:10:31;5.17;1.23;0.20
70197;PMS5003;57582;-34.876;138.628;2023-09-07T07:13:30;3.80;2.80;0.10
70197;PMS5003;57582;-34.876;138.628;2023-09-07T07:16:31;2.63;2.07;0.37
70197;PMS5003;57582;-34.876;138.628;2023-09-07T07:19:31;2.33;2.03;0.00
70197;PMS5003;57582;-34.876;138.628;2023-09-07T07:22:31;3.90;2.70;0.00
70197;PMS5003;57582;-34.876;138.628;2023-09-07T07:25:31;2.27;1.33;0.00
70197;PMS5003;57582;-34.876;138.628;2023-09-07T07:28:31;3.87;2.87;0.00
70197;PMS5003;57582;-34.876;138.628;2023-09-07T07:31:31;3.97;1.03;0.00
70197;PMS5003;57582;-34.876;138.628;2023-09-07T07:34:31;3.60;1.63;0.20
70197;PMS5003;57582;-34.876;138.628;2023-09-07T07:37:31;2.10;2.10;0.80
70197;PMS5003;57582;-34.876;138.628;2023-09-07T07:40:31;2.17;1.83;0.13
70197;PMS5003;57582;-34.876;138.628;2023-09-07T07:43:32;3.10;2.07;0.20
70197;PMS5003;57582;-34.876;138.628;2023-09-07T07:46:31;2.47;1.33;0.07
70197;PMS5003;57582;-34.876;138.628;2023-09-07T07:49:30;2.03;2.03;0.30
70197;PMS5003;57582;-34.876;138.628;2023-09-07T07:52:31;2.63;1.57;0.23
70197;PMS5003;57582;-34.876;138.628;2023-09-07T07:55:30;2.37;1.53;0.17
70197;PMS5003;57582;-34.876;138.628;2023-09-07T07:58:31;4.67;3.53;1.60
70197;PMS5003;57582;-34.876;138.628;2023-09-07T08:01:31;3.00;1.70;0.77
70197;PMS5003;57582;-34.876;138.628;2023-09-07T08:04:31;2.23;0.60;0.10
70197;PMS5003;57582;-34.876;138.628;2023-09-07T08:07:30;2.70;1.53;0.30
70197;PMS5003;57582;-34.876;138.628;2023-09-07T08:10:35;3.17;2.13;0.37
70197;PMS5003;57582;-34.876;138.628;2023-09-07T08:13:32;2.83;1.70;0.70
70197;PMS5003;57582;-34.876;138.628;2023-09-07T08:16:31;1.83;1.40;0.10
70197;PMS5003;57582;-34.876;138.628;2023-09-07T08:19:31;4.03;2.30;0.00
70197;PMS5003;57582;-34.876;138.628;2023-09-07T08:22:31;4.20;1.57;0.00
70197;PMS5003;57582;-34.876;138.628;2023-09-07T08:25:31;0.63;0.00;0.00
70197;PMS5003;57582;-34.876;138.628;2023-09-07T08:28:31;2.63;1.43;0.40
70197;PMS5003;57582;-34.876;138.628;2023-09-07T08:31:32;1.47;1.40;0.10
70197;PMS5003;57582;-34.876;138.628;2023-09-07T08:34:31;2.47;2.27;0.40
70197;PMS5003;57582;-34.876;138.628;2023-09-07T08:37:31;3.17;2.23;0.20
70197;PMS5003;57582;-34.876;138.628;2023-09-07T08:40:31;2.53;0.93;0.00
70197;PMS5003;57582;-34.876;138.628;2023-09-07T08:43:33;1.43;1.33;0.07
70197;PMS5003;57582;-34.876;138.628;2023-09-07T08:46:31;6.37;3.30;0.53
70197;PMS5003;57582;-34.876;138.628;2023-09-07T08:49:31;4.30;2.83;0.37
70197;PMS5003;57582;-34.876;138.628;2023-09-07T08:52:31;3.93;1.97;0.30
70197;PMS5003;57582;-34.876;138.628;2023-09-07T08:55:31;3.37;2.27;0.70
70197;PMS5003;57582;-34.876;138.628;2023-09-07T08:58:31;3.30;2.43;0.50
70197;PMS5003;57582;-34.876;138.628;2023-09-07T09:01:31;2.57;1.27;0.03
70197;PMS5003;57582;-34.876;138.628;2023-09-07T09:04:31;5.83;3.33;0.67
70197;PMS5003;57582;-34.876;138.628;2023-09-07T09:07:31;1.67;1.07;0.00
70197;PMS5003;57582;-34.876;138.628;2023-09-07T09:10:32;3.67;2.00;0.87
70197;PMS5003;57582;-34.876;138.628;2023-09-07T09:13:31;3.20;2.40;0.80
70197;PMS5003;57582;-34.876;138.628;2023-09-07T09:16:31;1.73;1.73;0.00
70197;PMS5003;57582;-34.876;138.628;2023-09-07T09:19:32;2.30;1.80;0.70
70197;PMS5003;57582;-34.876;138.628;2023-09-07T09:22:31;5.17;2.07;0.13
70197;PMS5003;57582;-34.876;138.628;2023-09-07T09:25:31;3.20;1.07;0.07
70197;PMS5003;57582;-34.876;138.628;2023-09-07T09:28:32;2.67;1.70;0.90
70197;PMS5003;57582;-34.876;138.628;2023-09-07T09:31:31;2.80;2.03;0.67
70197;PMS5003;57582;-34.876;138.628;2023-09-07T09:34:39;6.77;1.87;0.17
70197;PMS5003;57582;-34.876;138.628;2023-09-07T09:37:31;4.60;2.20;0.73
70197;PMS5003;57582;-34.876;138.628;2023-09-07T09:40:31;6.53;2.50;0.37
70197;PMS5003;57582;-34.876;138.628;2023-09-07T09:43:31;2.60;0.40;0.00
70197;PMS5003;57582;-34.876;138.628;2023-09-07T09:46:32;2.77;1.60;0.83
70197;PMS5003;57582;-34.876;138.628;2023-09-07T09:49:31;3.40;2.27;0.70
70197;PMS5003;57582;-34.876;138.628;2023-09-07T09:52:31;1.63;0.97;0.23
70197;PMS5003;57582;-34.876;138.628;2023-09-07T09:55:32;4.57;2.07;0.93
70197;PMS5003;57582;-34.876;138.628;2023-09-07T09:58:31;5.13;2.30;1.20
70197;PMS5003;57582;-34.876;138.628;2023-09-07T10:01:39;0.73;0.70;0.10
70197;PMS5003;57582;-34.876;138.628;2023-09-07T10:04:31;5.30;2.17;0.27
70197;PMS5003;57582;-34.876;138.628;2023-09-07T10:08:02;2.10;1.20;0.00
70197;PMS5003;57582;-34.876;138.628;2023-09-07T10:10:35;3.27;0.93;0.33
70197;PMS5003;57582;-34.876;138.628;2023-09-07T10:13:32;1.40;0.90;0.00
70197;PMS5003;57582;-34.876;138.628;2023-09-07T10:16:48;0.67;0.63;0.03
70197;PMS5003;57582;-34.876;138.628;2023-09-07T10:19:31;5.10;2.53;0.87
70197;PMS5003;57582;-34.876;138.628;2023-09-07T10:22:31;1.20;0.67;0.20
70197;PMS5003;57582;-34.876;138.628;2023-09-07T10:25:31;4.00;1.43;0.00
70197;PMS5003;57582;-34.876;138.628;2023-09-07T10:28:31;0.70;0.13;0.00
70197;PMS5003;57582;-34.876;138.628;2023-09-07T10:31:31;0.57;0.03;0.00
70197;PMS5003;57582;-34.876;138.628;2023-09-07T10:34:36;6.20;2.00;0.00
70197;PMS5003;57582;-34.876;138.628;2023-09-07T10:37:31;1.67;0.87;0.00
70197;PMS5003;57582;-34.876;138.628;2023-09-07T10:40:31;5.67;1.93;0.47
70197;PMS5003;57582;-34.876;138.628;2023-09-07T10:43:32;1.33;1.33;0.00
70197;PMS5003;57582;-34.876;138.628;2023-09-07T10:46:31;1.70;0.60;0.00
70197;PMS5003;57582;-34.876;138.628;2023-09-07T10:49:31;1.43;0.70;0.00
70197;PMS5003;57582;-34.876;138.628;2023-09-07T10:52:33;0.60;0.40;0.17
70197;PMS5003;57582;-34.876;138.628;2023-09-07T10:55:36;0.63;0.63;0.00
70197;PMS5003;57582;-34.876;138.628;2023-09-07T10:58:33;1.90;0.90;0.00
70197;PMS5003;57582;-34.876;138.628;2023-09-07T11:01:34;6.77;1.37;0.00
70197;PMS5003;57582;-34.876;138.628;2023-09-07T11:04:31;2.30;1.30;0.43
70197;PMS5003;57582;-34.876;138.628;2023-09-07T11:07:32;2.50;0.87;0.40
70197;PMS5003;57582;-34.876;138.628;2023-09-07T11:10:34;1.63;0.97;0.00
70197;PMS5003;57582;-34.876;138.628;2023-09-07T11:13:32;8.47;4.20;1.00
70197;PMS5003;57582;-34.876;138.628;2023-09-07T11:16:33;3.03;1.37;0.13
70197;PMS5003;57582;-34.876;138.628;2023-09-07T11:19:33;5.23;2.73;1.23
70197;PMS5003;57582;-34.876;138.628;2023-09-07T11:22:32;2.83;1.70;0.60
70197;PMS5003;57582;-34.876;138.628;2023-09-07T11:25:36;2.50;0.47;0.30
70197;PMS5003;57582;-34.876;138.628;2023-09-07T11:28:31;3.60;2.13;0.00
70197;PMS5003;57582;-34.876;138.628;2023-09-07T11:31:32;3.97;1.57;0.03
70197;PMS5003;57582;-34.876;138.628;2023-09-07T11:34:31;1.03;1.03;0.00
70197;PMS5003;57582;-34.876;138.628;2023-09-07T11:37:31;0.83;0.83;0.00
70197;PMS5003;57582;-34.876;138.628;2023-09-07T11:40:31;1.23;0.60;0.00
70197;PMS5003;57582;-34.876;138.628;2023-09-07T11:43:31;0.77;0.63;0.13
70197;PMS5003;57582;-34.876;138.628;2023-09-07T11:46:31;3.03;0.50;0.00
70197;PMS5003;57582;-34.876;138.628;2023-09-07T11:49:32;1.93;1.10;0.00
70197;PMS5003;57582;-34.876;138.628;2023-09-07T11:52:31;3.70;1.00;0.03
70197;PMS5003;57582;-34.876;138.628;2023-09-07T11:55:32;3.80;2.60;0.00
70197;PMS5003;57582;-34.876;138.628;2023-09-07T11:58:31;2.57;1.47;0.00
70197;PMS5003;57582;-34.876;138.628;2023-09-07T12:01:31;3.10;1.80;0.03
70197;PMS5003;57582;-34.876;138.628;2023-09-07T12:04:31;2.63;1.60;0.00
70197;PMS5003;57582;-34.876;138.628;2023-09-07T12:07:31;3.57;1.83;0.20
70197;PMS5003;57582;-34.876;138.628;2023-09-07T12:10:32;4.77;1.50;0.40
70197;PMS5003;57582;-34.876;138.628;2023-09-07T12:13:31;7.10;3.97;0.43
70197;PMS5003;57582;-34.876;138.628;2023-09-07T12:16:31;2.53;2.53;0.37
70197;PMS5003;57582;-34.876;138.628;2023-09-07T12:19:31;2.93;2.50;0.63
70197;PMS5003;57582;-34.876;138.628;2023-09-07T12:22:31;2.47;0.37;0.03
70197;PMS5003;57582;-34.876;138.628;2023-09-07T12:25:31;2.47;1.23;0.00
70197;PMS5003;57582;-34.876;138.628;2023-09-07T12:28:32;3.83;1.63;0.27
70197;PMS5003;57582;-34.876;138.628;2023-09-07T12:31:31;3.73;2.13;0.30
70197;PMS5003;57582;-34.876;138.628;2023-09-07T12:34:32;2.80;1.73;0.07
70197;PMS5003;57582;-34.876;138.628;2023-09-07T12:37:31;4.50;1.27;0.00
70197;PMS5003;57582;-34.876;138.628;2023-09-07T12:40:31;5.97;2.70;0.87
70197;PMS5003;57582;-34.876;138.628;2023-09-07T12:43:31;5.37;3.03;0.77
70197;PMS5003;57582;-34.876;138.628;2023-09-07T12:46:32;10.20;4.67;0.70
70197;PMS5003;57582;-34.876;138.628;2023-09-07T12:49:31;5.90;2.93;0.67
70197;PMS5003;57582;-34.876;138.628;2023-09-07T12:52:32;4.33;2.57;0.97
70197;PMS5003;57582;-34.876;138.628;2023-09-07T12:55:31;9.20;3.47;1.13
70197;PMS5003;57582;-34.876;138.628;2023-09-07T12:58:31;6.57;3.13;0.60
70197;PMS5003;57582;-34.876;138.628;2023-09-07T13:01:31;3.37;2.43;0.43
70197;PMS5003;57582;-34.876;138.628;2023-09-07T13:04:31;8.57;4.67;1.13
70197;PMS5003;57582;-34.876;138.628;2023-09-07T13:07:31;7.50;4.00;1.20
70197;PMS5003;57582;-34.876;138.628;2023-09-07T13:10:32;12.60;5.57;1.43
70197;PMS5003;57582;-34.876;138.628;2023-09-07T13:13:31;9.13;4.33;1.60
70197;PMS5003;57582;-34.876;138.628;2023-09-07T13:16:31;9.50;5.70;1.67
70197;PMS5003;57582;-34.876;138.628;2023-09-07T13:19:31;11.00;6.47;1.77
70197;PMS5003;57582;-34.876;138.628;2023-09-07T13:22:32;10.10;5.13;1.37
70197;PMS5003;57582;-34.876;138.628;2023-09-07T13:25:31;6.93;5.43;1.87
70197;PMS5003;57582;-34.876;138.628;2023-09-07T13:28:31;7.70;5.20;2.10
70197;PMS5003;57582;-34.876;138.628;2023-09-07T13:31:31;6.73;4.13;1.70
70197;PMS5003;57582;-34.876;138.628;2023-09-07T13:34:32;9.43;4.83;1.00
70197;PMS5003;57582;-34.876;138.628;2023-09-07T13:37:31;9.80;5.93;1.60
70197;PMS5003;57582;-34.876;138.628;2023-09-07T13:40:31;12.40;6.77;1.60
70197;PMS5003;57582;-34.876;138.628;2023-09-07T13:43:31;11.37;6.67;1.40
70197;PMS5003;57582;-34.876;138.628;2023-09-07T13:46:32;4.97;3.37;0.93
70197;PMS5003;57582;-34.876;138.628;2023-09-07T13:49:31;11.20;6.87;1.53
70197;PMS5003;57582;-34.876;138.628;2023-09-07T13:52:31;9.37;6.03;1.80
70197;PMS5003;57582;-34.876;138.628;2023-09-07T13:55:31;9.07;5.57;1.40
70197;PMS5003;57582;-34.876;138.628;2023-09-07T13:58:32;8.27;5.40;1.37
70197;PMS5003;57582;-34.876;138.628;2023-09-07T14:01:32;9.00;5.83;0.77
70197;PMS5003;57582;-34.876;138.628;2023-09-07T14:04:32;9.90;5.17;1.53
70197;PMS5003;57582;-34.876;138.628;2023-09-07T14:07:31;8.67;5.27;0.57
70197;PMS5003;57582;-34.876;138.628;2023-09-07T14:10:32;6.20;5.77;1.47
70197;PMS5003;57582;-34.876;138.628;2023-09-07T14:13:32;6.70;4.63;0.73
70197;PMS5003;57582;-34.876;138.628;2023-09-07T14:16:31;11.27;3.17;1.13
70197;PMS5003;57582;-34.876;138.628;2023-09-07T14:19:31;6.13;1.80;0.40
70197;PMS5003;57582;-34.876;138.628;2023-09-07T14:22:32;8.60;4.90;1.70
70197;PMS5003;57582;-34.876;138.628;2023-09-07T14:25:31;7.87;3.03;0.83
70197;PMS5003;57582;-34.876;138.628;2023-09-07T14:28:32;4.17;3.17;1.50
70197;PMS5003;57582;-34.876;138.628;2023-09-07T14:31:31;9.27;2.33;0.40
70197;PMS5003;57582;-34.876;138.628;2023-09-07T14:34:32;12.00;5.43;1.07
70197;PMS5003;57582;-34.876;138.628;2023-09-07T14:37:31;7.87;3.73;1.40
70197;PMS5003;57582;-34.876;138.628;2023-09-07T14:40:31;8.20;4.57;1.00
70197;PMS5003;57582;-34.876;138.628;2023-09-07T14:43:31;7.20;3.40;1.10
70197;PMS5003;57582;-34.876;138.628;2023-09-07T14:46:32;6.00;4.20;0.00
70197;PMS5003;57582;-34.876;138.628;2023-09-07T14:49:31;9.43;5.30;0.77
70197;PMS5003;57582;-34.876;138.628;2023-09-07T14:52:31;8.30;3.57;1.07
70197;PMS5003;57582;-34.876;138.628;2023-09-07T14:55:32;13.70;6.53;0.90
70197;PMS5003;57582;-34.876;138.628;2023-09-07T14:58:32;11.37;3.63;0.77
70197;PMS5003;57582;-34.876;138.628;2023-09-07T15:01:31;4.13;2.20;0.20
70197;PMS5003;57582;-34.876;138.628;2023-09-07T15:04:34;7.00;4.17;0.40
70197;PMS5003;57582;-34.876;138.628;2023-09-07T15:07:31;7.07;4.50;0.97
70197;PMS5003;57582;-34.876;138.628;2023-09-07T15:10:32;10.47;6.13;1.00
70197;PMS5003;57582;-34.876;138.628;2023-09-07T15:13:31;6.47;4.53;0.50
70197;PMS5003;57582;-34.876;138.628;2023-09-07T15:16:31;7.10;3.93;0.67
70197;PMS5003;57582;-34.876;138.628;2023-09-07T15:19:31;9.60;5.53;1.30
70197;PMS5003;57582;-34.876;138.628;2023-09-07T15:22:32;10.97;5.80;0.97
70197;PMS5003;57582;-34.876;138.628;2023-09-07T15:25:31;3.77;2.70;0.33
70197;PMS5003;57582;-34.876;138.628;2023-09-07T15:28:31;8.27;2.43;0.33
70197;PMS5003;57582;-34.876;138.628;2023-09-07T15:31:32;6.67;2.47;0.20
70197;PMS5003;57582;-34.876;138.628;2023-09-07T15:34:32;5.03;2.17;0.17
70197;PMS5003;57582;-34.876;138.628;2023-09-07T15:37:31;4.80;3.03;0.43
70197;PMS5003;57582;-34.876;138.628;2023-09-07T15:40:32;6.07;4.50;1.67
70197;PMS5003;57582;-34.876;138.628;2023-09-07T15:43:32;5.40;3.50;0.97
70197;PMS5003;57582;-34.876;138.628;2023-09-07T15:46:32;9.33;5.57;1.03
70197;PMS5003;57582;-34.876;138.628;2023-09-07T15:49:31;8.97;2.90;1.20
70197;PMS5003;57582;-34.876;138.628;2023-09-07T15:52:31;6.43;2.07;0.17
70197;PMS5003;57582;-34.876;138.628;2023-09-07T15:55:31;6.73;2.67;0.13
70197;PMS5003;57582;-34.876;138.628;2023-09-07T15:58:32;4.87;2.77;0.07
70197;PMS5003;57582;-34.876;138.628;2023-09-07T16:01:32;8.83;4.80;0.97
70197;PMS5003;57582;-34.876;138.628;2023-09-07T16:04:31;7.17;5.23;0.93
70197;PMS5003;57582;-34.876;138.628;2023-09-07T16:07:32;6.83;3.60;0.93
70197;PMS5003;57582;-34.876;138.628;2023-09-07T16:10:32;9.40;3.63;0.53
70197;PMS5003;57582;-34.876;138.628;2023-09-07T16:13:31;4.90;2.37;0.67
70197;PMS5003;57582;-34.876;138.628;2023-09-07T16:16:32;8.57;3.83;1.10
70197;PMS5003;57582;-34.876;138.628;2023-09-07T16:19:31;6.03;4.13;0.50
70197;PMS5003;57582;-34.876;138.628;2023-09-07T16:22:32;5.07;2.97;0.03
70197;PMS5003;57582;-34.876;138.628;2023-09-07T16:25:32;6.50;3.00;0.40
70197;PMS5003;57582;-34.876;138.628;2023-09-07T16:28:31;5.77;2.50;0.43
70197;PMS5003;57582;-34.876;138.628;2023-09-07T16:31:32;6.83;4.03;1.27
70197;PMS5003;57582;-34.876;138.628;2023-09-07T16:34:32;6.87;4.67;0.70
70197;PMS5003;57582;-34.876;138.628;2023-09-07T16:37:32;3.90;2.73;0.23
70197;PMS5003;57582;-34.876;138.628;2023-09-07T16:40:31;5.07;2.50;0.73
70197;PMS5003;57582;-34.876;138.628;2023-09-07T16:43:33;5.57;2.67;0.47
70197;PMS5003;57582;-34.876;138.628;2023-09-07T16:46:32;4.03;1.17;0.07
70197;PMS5003;57582;-34.876;138.628;2023-09-07T16:49:31;4.77;2.07;0.73